64018 station(s) have been heard in the last 24 hours.

<< 207 208 209 210 211 212 213 >>
  Name/Id Latest heard Comment/Other Map
Symbol NEL-7025 1788450257 147.025MHz +060 Nelson 7025 2M VHF Repeate https://www.nzart.org.nz/info/repeater-mapsr Map
Symbol TAYLORS P 1788450257 TAYLORS PRIDE MMSI:316028671 Map
Symbol VA7RBP-10 1788450257 BPQ Node VA7RBP-7 145.090 / IGate Castlegar IRLP-3409 ALLSTAR-56824 Map
Symbol F4IED-2 1788450257 02011R 35.5C 24% 5.2V 12S op:Bertrand Map
Symbol JP3YIH-I 1788450257 D-STAR -> APRS Map
Symbol SV9TNF-58 1788450257 DewPoint: 14C | HeatIndex: 29.7C | WindChill: 30.3C | UV Index: 0 | Solar Radiation: 50.4 W/m | for info email me at SV9TNF@gmail.com | http://SV9TNF.HAM.GD Map
Symbol W9FRG A 1788450257 1.2 Voice 1282.1500 -12.00 Map
Symbol SA5BJZ-8 1788450257 `_4 Map
Symbol KC4MCQ-10 1788450257 WX via WeatherSTEM MCEM Salt Springs Map
Symbol W9FRG C 1788450257 2m Voice 145.2250 -0.600 Map
Symbol KK4DFC C 1788450257 2m Voice 146.790 -5 MHz Map
Symbol WA0DE-9 1788450257 ARESDEC CommTrailer Map
Symbol JK1AUT-14 1788450257 000 51.66MHz / 1.2K TEST {UIV32N} Map
Symbol W9FRG B 1788450257 440 Voice 442.81875 +5.00 Map
Symbol F4LFC-10 1788450257 LoRa APRS Herve F4LFC Map
Symbol KB3TIX-1 1788450257 13.45V Map
Symbol OH8HQL-4 1788450257 OpenWebRX APRS gateway HEIGHT=16 GAIN=5 Map
Symbol N0GIK-D 1788450257 70cm MMDVM Voice (DMR) 444.52500MHz +5.0000MHz, APRS for DMRGateway Map
Symbol XE1CFS-10 1788450257 73 Map
Symbol DM0FFL-2 1788450257 LoRa iGATE FunkFreunde Landshut Map
Symbol BH5HSG-10 1788450257 13.4V Map
Symbol GB7FL B 1788450257 440 Voice 439.76250MHz -9.0000MHz Map
Symbol KC3NQT C 1788450257 2m Voice (D-Star) 145.55000MHz +0.0000MHz Map
Symbol K4LDC B 1788450257 70cm Voice (D-Star) 439.00000MHz +0.0000MHz, APRS for ircDDBGateway Map
Symbol LD3TD B 1788450257 70cm Voice (D-Star) 434.56250MHz -2.0000MHz Map
Symbol SR3NOW 1788450257 Digi & iGate Ostrow Wielkopolski Map
Symbol KC3NQT-C 1788450257 2m Voice (D-Star) 145.55000MHz +0.0000MHz Map
Symbol SV9TNF-57 1788450257 DewPoint: 18.1C | HeatIndex: 30.7C | WindChill: 29.9C | UV Index: 0 | Solar Radiation: 52.6 W/m | for info email me at SV9TNF@gmail.com | http://SV9TNF.HAM.GD Map
Symbol DL1MMS-10 1788450257 RX-I-Gate WX Station DL1MMS Map
Symbol SK4WV-2 1788450257 W3 Appelbo Map
Symbol IW2FCH-10 1788450257 Lora Aprs Brescia Est Map
Symbol IZ1GCT 1788450257 _Meteo SuSa (To) {UIV32N} Map
Symbol DJ0QO-10 1788450257 LoRa APRS Map
Symbol SV9TNF-52 1788450257 DewPoint: 20.8C | HeatIndex: 27.6C | WindChill: 26.1C | UV Index: 0 | Solar Radiation: 62.7 W/m | powered by https://www.hotel-babis.gr Map
Symbol BG2EFX-4 1788450256 E1[NRL_2300A_1W_D4_260209 11.9V RX:439.9000:88.5 TX:434.9000:88.5] E2[-] Map
Symbol VA3HAE-D 1788450256 70cm MMDVM Voice (DMR) 449.85000MHz -7.0000MHz, APRS for DMRGateway Map
Symbol INDIAN 1788450256 Map
Symbol SQ4VW-10 1788450256 LoRa APRS Digi test2 Batt=4.13V Map
Symbol IR3DA B 1788450256 70cm Voice (D-Star) 430.01250MHz +5.0000MHz Map
Symbol R1ZCU-15 1788450256 b00-13878Temp.: 23.3 C. PreSsure: -1040.89 mmHg. Map
Symbol IS0HZA-Y 1788450256 Powered by WPSD (https://wpsd.radio) Map
Symbol IQ9DE-10 1788450256 ARI Catania - Rete LoRa APRS iGate Map
Symbol SP7KGO-3 1788450256 op.SQ7FSO Igate Busko Zdroj RX/TX U=12.2V Map
Symbol KO4HHU-N 1788450256 70cm MMDVM Voice (C4FM) 438.80000MHz +0.0000MHz, KO4HHU_Pi-Star_ND Map
Symbol IZ1NHA 1788450256 430.025MHz t077 + 1 R 5m SvxLink Node Map
Symbol DM0MGB-R 1788450256 438.850MHz 1750 -760 FM-Relais Map
Symbol LA7DHA-10 1788450256 WX3in1Mini U=14.1V Leknes in Lofoten Map
Symbol KF5END-4 1788450256 Cedar Park, TX Map
Symbol EL-IZ1NHA 1788450256 430.025MHz t077 + 1 R 5m SvxLink Node Map
Symbol BG4OPP 1788450256 439.350MHz Map